Time;durP1;ratioP1;P1;durP2;ratioP2;P2;SDS_P1;SDS_P2;PMS_P1;PMS_P2;Temp;Humidity;BMP_temperature;BMP_pressure;BME280_temperature;BME280_humidity;BME280_pressure;Samples;Min_cycle;Max_cycle;Signal;HPM_P1;HPM_P2
2023/07/31 19:01:04;;;;;;;6.05;2.20;;;;;;;;;;5025533;27;21060;-77
2023/07/31 19:03:30;;;;;;;3.83;2.08;;;;;;;;;;5015669;28;20065;-78
2023/07/31 19:06:03;;;;;;;2.92;1.88;;;;;;;;;;5017851;28;20025;-77
2023/07/31 19:08:30;;;;;;;2.83;2.05;;;;;;;;;;5005442;28;20051;-76
2023/07/31 19:10:55;;;;;;;2.33;1.80;;;;;;;;;;5001908;28;20068;-76
2023/07/31 19:13:21;;;;;;;3.92;1.83;;;;;;;;;;5004194;28;20124;-77
2023/07/31 19:15:48;;;;;;;2.78;2.03;;;;;;;;;;5002357;28;20377;-75
2023/07/31 19:18:14;;;;;;;3.72;1.77;;;;;;;;;;5004869;28;20044;-75
2023/07/31 19:20:40;;;;;;;2.40;2.13;;;;;;;;;;5002924;28;20021;-77
2023/07/31 19:23:06;;;;;;;4.10;1.80;;;;;;;;;;5005632;28;20034;-76
2023/07/31 19:25:31;;;;;;;3.88;1.92;;;;;;;;;;5003588;28;20022;-76
2023/07/31 19:27:56;;;;;;;3.47;1.98;;;;;;;;;;5000349;28;20045;-76
2023/07/31 19:30:22;;;;;;;2.17;1.52;;;;;;;;;;5001041;28;20034;-75
2023/07/31 19:32:47;;;;;;;4.57;2.33;;;;;;;;;;5000597;28;20773;-75
2023/07/31 19:35:14;;;;;;;2.75;1.73;;;;;;;;;;5004891;28;20029;-75
2023/07/31 19:37:39;;;;;;;2.45;1.80;;;;;;;;;;5001348;28;20068;-76
2023/07/31 19:40:05;;;;;;;3.08;1.90;;;;;;;;;;5002023;28;21771;-75
2023/07/31 19:42:32;;;;;;;1.95;1.73;;;;;;;;;;4998184;28;20030;-75
2023/07/31 19:44:58;;;;;;;3.40;2.15;;;;;;;;;;5002225;28;21544;-75
2023/07/31 19:47:23;;;;;;;5.78;2.33;;;;;;;;;;4998572;28;20096;-75
2023/07/31 19:49:49;;;;;;;3.40;2.15;;;;;;;;;;5001753;28;21115;-74
2023/07/31 19:52:14;;;;;;;4.30;2.28;;;;;;;;;;5001629;28;20192;-75
2023/07/31 19:54:40;;;;;;;2.92;2.00;;;;;;;;;;4990804;28;20146;-75
2023/07/31 19:57:05;;;;;;;3.83;1.85;;;;;;;;;;4999264;28;20032;-74
2023/07/31 19:59:30;;;;;;;4.13;2.20;;;;;;;;;;5000582;28;20545;-75
2023/07/31 20:01:56;;;;;;;3.55;2.45;;;;;;;;;;5000819;28;20121;-75
2023/07/31 20:04:22;;;;;;;5.40;1.77;;;;;;;;;;5003739;28;20021;-76
2023/07/31 20:06:47;;;;;;;2.83;1.98;;;;;;;;;;5002777;28;20029;-74
2023/07/31 20:09:12;;;;;;;3.05;2.08;;;;;;;;;;5000152;28;20029;-74
2023/07/31 20:11:38;;;;;;;3.17;1.67;;;;;;;;;;4992614;28;20072;-74
2023/07/31 20:14:07;;;;;;;2.40;1.65;;;;;;;;;;4986090;28;20442;-74
2023/07/31 20:16:35;;;;;;;2.30;1.70;;;;;;;;;;4986353;28;20036;-74
2023/07/31 20:19:00;;;;;;;3.30;2.15;;;;;;;;;;4986045;28;20037;-75
2023/07/31 20:21:26;;;;;;;2.47;1.92;;;;;;;;;;4989127;28;20022;-75
2023/07/31 20:23:51;;;;;;;2.75;1.70;;;;;;;;;;4985315;28;20080;-75
2023/07/31 20:26:17;;;;;;;3.33;1.80;;;;;;;;;;4987338;28;20521;-75
2023/07/31 20:28:42;;;;;;;3.40;2.00;;;;;;;;;;4988190;28;20080;-74
2023/07/31 20:31:07;;;;;;;2.33;1.90;;;;;;;;;;4984352;28;20026;-74
2023/07/31 20:33:33;;;;;;;4.43;1.95;;;;;;;;;;4986428;28;20104;-74
2023/07/31 20:35:58;;;;;;;2.42;1.85;;;;;;;;;;4988676;28;20668;-75
2023/07/31 20:38:24;;;;;;;2.10;1.40;;;;;;;;;;4985929;28;20053;-75
2023/07/31 20:40:51;;;;;;;2.47;1.70;;;;;;;;;;4988730;28;20064;-75
2023/07/31 20:43:18;;;;;;;2.80;1.90;;;;;;;;;;4988782;28;21669;-75
2023/07/31 20:45:43;;;;;;;2.90;1.65;;;;;;;;;;4985269;28;20033;-75
2023/07/31 20:48:11;;;;;;;3.15;1.85;;;;;;;;;;4986009;28;20696;-77
2023/07/31 20:50:36;;;;;;;2.53;1.90;;;;;;;;;;4981111;28;20029;-75
2023/07/31 20:53:03;;;;;;;3.83;1.70;;;;;;;;;;4985340;28;20022;-74
2023/07/31 20:55:28;;;;;;;3.03;1.60;;;;;;;;;;4984277;28;20030;-74
2023/07/31 20:57:53;;;;;;;2.85;1.42;;;;;;;;;;4987931;28;20033;-75
2023/07/31 21:00:19;;;;;;;2.75;2.03;;;;;;;;;;4986768;28;20088;-75
2023/07/31 21:02:45;;;;;;;1.95;1.52;;;;;;;;;;4978011;28;20031;-75
2023/07/31 21:05:10;;;;;;;3.83;1.80;;;;;;;;;;4986374;28;20036;-75
2023/07/31 21:07:37;;;;;;;3.55;1.65;;;;;;;;;;4984985;28;20033;-75
2023/07/31 21:10:04;;;;;;;2.22;1.50;;;;;;;;;;4982677;28;20022;-75
2023/07/31 21:12:29;;;;;;;2.10;1.50;;;;;;;;;;4987219;28;20052;-75
2023/07/31 21:14:55;;;;;;;1.67;1.13;;;;;;;;;;4983404;28;20188;-73
2023/07/31 21:17:20;;;;;;;2.20;1.58;;;;;;;;;;4982355;28;20168;-74
2023/07/31 21:19:46;;;;;;;3.08;1.50;;;;;;;;;;4984023;28;20033;-73
2023/07/31 21:22:13;;;;;;;3.03;1.58;;;;;;;;;;4983453;28;20075;-75
2023/07/31 21:24:39;;;;;;;2.55;1.38;;;;;;;;;;4983397;28;20026;-75
2023/07/31 21:27:05;;;;;;;2.05;1.30;;;;;;;;;;4984188;28;20785;-75
2023/07/31 21:29:30;;;;;;;1.60;1.20;;;;;;;;;;4980975;28;20141;-74
2023/07/31 21:31:56;;;;;;;1.60;1.15;;;;;;;;;;4988032;28;20028;-75
2023/07/31 21:34:21;;;;;;;1.63;1.00;;;;;;;;;;4984221;28;20045;-76
2023/07/31 21:36:46;;;;;;;1.67;1.00;;;;;;;;;;4986661;28;20014;-75
2023/07/31 21:39:12;;;;;;;1.58;1.20;;;;;;;;;;4981473;28;20041;-75
2023/07/31 21:41:37;;;;;;;1.48;1.17;;;;;;;;;;4981167;28;20030;-75
2023/07/31 21:44:03;;;;;;;1.45;0.90;;;;;;;;;;4984139;28;20030;-75
2023/07/31 21:46:28;;;;;;;0.82;0.63;;;;;;;;;;4983052;28;20026;-75
2023/07/31 21:48:54;;;;;;;2.47;1.20;;;;;;;;;;4982311;28;20565;-76
2023/07/31 21:51:19;;;;;;;1.42;1.00;;;;;;;;;;4984275;28;20034;-75
2023/07/31 21:53:45;;;;;;;1.05;0.80;;;;;;;;;;4983541;28;20030;-75
2023/07/31 21:56:10;;;;;;;2.08;1.25;;;;;;;;;;4982907;28;20512;-74
2023/07/31 21:58:35;;;;;;;1.63;1.10;;;;;;;;;;4984077;28;20064;-75
2023/07/31 22:01:01;;;;;;;1.73;1.20;;;;;;;;;;4981536;28;20129;-75
2023/07/31 22:03:26;;;;;;;1.83;0.90;;;;;;;;;;4982470;28;20732;-75
2023/07/31 22:05:52;;;;;;;1.33;0.93;;;;;;;;;;4981779;28;20518;-74
2023/07/31 22:08:17;;;;;;;1.98;0.85;;;;;;;;;;4984934;28;20118;-75
2023/07/31 22:10:42;;;;;;;1.52;0.95;;;;;;;;;;4984297;28;20039;-74
2023/07/31 22:13:08;;;;;;;1.10;0.85;;;;;;;;;;4978753;28;20471;-74
2023/07/31 22:15:33;;;;;;;1.20;1.05;;;;;;;;;;4998640;28;20034;-74
2023/07/31 22:17:58;;;;;;;1.20;1.10;;;;;;;;;;4973415;28;20732;-74
2023/07/31 22:20:24;;;;;;;2.90;1.00;;;;;;;;;;4998469;28;20051;-74
2023/07/31 22:22:49;;;;;;;2.65;1.00;;;;;;;;;;4947896;28;20026;-74
2023/07/31 22:25:15;;;;;;;1.95;1.10;;;;;;;;;;4990319;28;20088;-74
2023/07/31 22:27:40;;;;;;;1.08;0.90;;;;;;;;;;5007753;28;20394;-73
2023/07/31 22:30:06;;;;;;;2.20;1.33;;;;;;;;;;5007042;28;20024;-73
2023/07/31 22:32:31;;;;;;;1.63;1.10;;;;;;;;;;5005381;28;20458;-73
2023/07/31 22:34:57;;;;;;;3.95;1.30;;;;;;;;;;5005991;28;20069;-74
2023/07/31 22:37:22;;;;;;;1.27;1.02;;;;;;;;;;5006068;28;20128;-74
2023/07/31 22:39:47;;;;;;;1.45;1.00;;;;;;;;;;5010836;28;20087;-75
2023/07/31 22:42:13;;;;;;;1.10;0.98;;;;;;;;;;5008785;28;20398;-74
2023/07/31 22:44:38;;;;;;;1.38;1.10;;;;;;;;;;5007969;28;20033;-74
2023/07/31 22:47:04;;;;;;;0.93;0.80;;;;;;;;;;5009446;28;20017;-74
2023/07/31 22:49:30;;;;;;;1.08;0.90;;;;;;;;;;5009394;28;20029;-75
2023/07/31 22:59:38;;;;;;;1.83;0.73;;;;;;;;;;4979970;28;20838;-74
2023/07/31 23:02:46;;;;;;;1.23;1.10;;;;;;;;;;4982173;28;20043;-75
2023/07/31 23:05:59;;;;;;;1.15;0.75;;;;;;;;;;4985706;28;20034;-74
2023/07/31 23:27:30;;;;;;;1.77;0.90;;;;;;;;;;4905812;29;20164;-74
2023/07/31 23:30:40;;;;;;;;;;;;;;;;;;;;;
2023/07/31 23:33:06;;;;;;;1.20;0.80;;;;;;;;;;4929556;28;20043;-75
2023/07/31 23:35:31;;;;;;;2.35;1.00;;;;;;;;;;4983730;28;20033;-75
2023/07/31 23:37:57;;;;;;;1.65;1.05;;;;;;;;;;5016721;28;20045;-75
2023/07/31 23:49:02;;;;;;;;;;;;;;;;;;;;;
